createdAt,value
2019-04-16T00:01:39.077Z,64.59
2019-04-16T00:04:26.942Z,65.31
2019-04-16T00:07:08.993Z,65.92
2019-04-16T00:09:56.347Z,65.42
2019-04-16T00:12:55.321Z,65.06
2019-04-16T00:15:29.175Z,65.15
2019-04-16T00:18:02.958Z,65.20
2019-04-16T00:20:41.360Z,65.53
2019-04-16T00:23:21.502Z,65.98
2019-04-16T00:25:56.429Z,66.09
2019-04-16T00:28:31.336Z,65.96
2019-04-16T00:31:05.925Z,66.59
2019-04-16T00:33:42.844Z,66.95
2019-04-16T00:36:17.831Z,67.01
2019-04-16T00:38:53.835Z,67.01
2019-04-16T00:41:26.585Z,67.54
2019-04-16T00:44:00.615Z,67.44
2019-04-16T00:46:34.442Z,68.50
2019-04-16T00:49:08.296Z,68.08
2019-04-16T00:51:42.094Z,67.94
2019-04-16T00:54:15.857Z,68.08
2019-04-16T00:56:49.642Z,67.97
2019-04-16T00:59:24.259Z,67.99
2019-04-16T01:01:59.081Z,68.51
2019-04-16T01:04:34.026Z,68.95
2019-04-16T01:07:07.937Z,68.66
2019-04-16T01:09:41.877Z,68.55
2019-04-16T01:12:15.783Z,68.58
2019-04-16T01:14:49.842Z,68.45
2019-04-16T01:17:23.928Z,68.59
2019-04-16T01:19:58.990Z,68.85
2019-04-16T01:22:32.827Z,68.90
2019-04-16T01:25:07.122Z,68.70
2019-04-16T01:27:45.149Z,69.06
2019-04-16T01:30:26.611Z,69.87
2019-04-16T01:33:14.778Z,69.33
2019-04-16T01:36:09.247Z,68.98
2019-04-16T01:38:49.202Z,69.09
2019-04-16T01:41:23.017Z,69.29
2019-04-16T01:43:57.264Z,69.01
2019-04-16T01:46:32.967Z,69.00
2019-04-16T01:49:09.803Z,69.17
2019-04-16T01:51:47.118Z,69.19
2019-04-16T01:54:22.547Z,69.33
2019-04-16T01:56:53.750Z,69.40
2019-04-16T01:59:27.516Z,69.76
2019-04-16T02:02:01.380Z,69.94
2019-04-16T02:04:35.230Z,69.95
2019-04-16T02:07:09.073Z,70.32
2019-04-16T02:09:42.913Z,70.39
2019-04-16T02:12:16.772Z,70.42
2019-04-16T02:14:51.164Z,70.72
2019-04-16T02:17:27.025Z,70.87
2019-04-16T02:20:04.985Z,71.22
2019-04-16T02:22:36.295Z,71.71
2019-04-16T02:25:10.501Z,72.15
2019-04-16T02:27:44.436Z,72.64
2019-04-16T02:30:18.336Z,73.39
2019-04-16T02:32:52.419Z,73.73
2019-04-16T02:35:26.358Z,73.85
2019-04-16T02:38:00.370Z,74.25
2019-04-16T02:40:34.669Z,74.60
2019-04-16T02:43:08.512Z,74.92
2019-04-16T02:45:42.605Z,75.13
2019-04-16T02:48:17.336Z,75.28
2019-04-16T02:50:54.074Z,75.02
2019-04-16T02:53:54.545Z,75.36
2019-04-16T02:56:39.554Z,75.58
2019-04-16T02:59:17.236Z,75.51
2019-04-16T03:02:10.230Z,75.23
2019-04-16T03:04:47.973Z,75.19
2019-04-16T03:07:21.940Z,75.20
2019-04-16T03:10:01.781Z,75.19
2019-04-16T03:12:31.297Z,75.14
2019-04-16T03:15:05.830Z,75.26
2019-04-16T03:17:43.767Z,74.70
2019-04-16T03:20:20.785Z,74.67
2019-04-16T03:22:53.260Z,74.92
2019-04-16T03:25:27.020Z,74.81
2019-04-16T03:28:00.961Z,74.96
2019-04-16T03:30:40.377Z,74.84
2019-04-16T03:33:13.970Z,74.99
2019-04-16T03:35:46.031Z,74.85
2019-04-16T03:38:19.786Z,74.50
2019-04-16T03:40:56.082Z,74.54
2019-04-16T03:43:31.879Z,74.36
2019-04-16T03:46:04.683Z,74.40
2019-04-16T03:48:38.438Z,74.51
2019-04-16T03:51:12.682Z,74.40
2019-04-16T03:53:49.475Z,74.50
2019-04-16T03:56:22.035Z,74.65
2019-04-16T03:58:55.854Z,74.61
2019-04-16T04:01:29.983Z,74.98
2019-04-16T04:04:04.442Z,75.02
2019-04-16T04:06:39.617Z,74.73
2019-04-16T04:09:14.045Z,74.93
2019-04-16T04:11:47.807Z,75.61
2019-04-16T04:14:23.490Z,74.82
2019-04-16T04:16:57.461Z,75.61
2019-04-16T04:19:31.234Z,75.45
2019-04-16T04:22:05.079Z,75.45
2019-04-16T04:24:38.850Z,75.23
2019-04-16T04:27:16.802Z,75.27
2019-04-16T04:29:48.394Z,75.25
2019-04-16T04:32:22.326Z,75.79
2019-04-16T04:34:56.175Z,75.67
2019-04-16T04:37:31.363Z,76.17
2019-04-16T04:40:06.215Z,76.10
2019-04-16T04:42:40.052Z,76.36
2019-04-16T04:45:14.025Z,76.73
2019-04-16T04:47:51.037Z,76.33
2019-04-16T04:50:23.556Z,76.47
2019-04-16T04:52:57.348Z,76.75
2019-04-16T04:55:31.109Z,76.35
2019-04-16T04:58:04.920Z,76.79
2019-04-16T05:00:40.275Z,76.51
2019-04-16T05:03:23.535Z,76.45
2019-04-16T05:05:59.121Z,76.64
2019-04-16T05:08:32.857Z,76.64
2019-04-16T05:11:06.620Z,76.22
2019-04-16T05:13:40.708Z,76.49
2019-04-16T05:16:14.449Z,76.49
2019-04-16T05:18:48.303Z,76.42
2019-04-16T05:21:22.217Z,76.43
2019-04-16T05:23:57.550Z,76.64
2019-04-16T05:26:33.490Z,76.52
2019-04-16T05:29:17.502Z,76.57
2019-04-16T05:31:48.524Z,76.02
2019-04-16T05:34:22.267Z,75.53
2019-04-16T05:36:56.878Z,76.03
2019-04-16T05:39:30.763Z,75.98
2019-04-16T05:42:04.681Z,75.63
2019-04-16T05:44:38.477Z,75.69
2019-04-16T05:47:16.878Z,75.55
2019-04-16T05:49:47.878Z,75.72
2019-04-16T05:52:21.673Z,75.43
2019-04-16T05:55:26.589Z,75.29
2019-04-16T05:58:00.381Z,75.21
2019-04-16T06:01:02.774Z,74.70
2019-04-16T06:03:36.540Z,74.44
2019-04-16T06:06:10.738Z,73.92
2019-04-16T06:08:44.532Z,73.97
2019-04-16T06:11:28.336Z,73.66
2019-04-16T06:14:02.946Z,73.63
2019-04-16T06:16:46.810Z,72.78
2019-04-16T06:19:36.489Z,72.36
2019-04-16T06:22:38.422Z,72.63
2019-04-16T06:25:31.492Z,72.00
2019-04-16T06:28:24.519Z,72.52
2019-04-16T06:31:12.526Z,71.44
2019-04-16T06:34:05.969Z,71.06
2019-04-16T06:36:57.632Z,70.30
2019-04-16T06:40:00.900Z,70.18
2019-04-16T06:42:47.107Z,69.88
2019-04-16T06:45:27.822Z,69.76
2019-04-16T06:48:13.153Z,69.75
2019-04-16T06:51:11.718Z,69.79
2019-04-16T06:54:01.022Z,68.61
2019-04-16T06:56:46.708Z,68.05
2019-04-16T06:59:39.681Z,66.30
2019-04-16T07:02:31.176Z,65.68
2019-04-16T07:05:14.493Z,65.22
2019-04-16T07:08:05.928Z,65.96
2019-04-16T07:10:50.373Z,64.93
2019-04-16T07:13:24.366Z,66.09
2019-04-16T07:15:58.164Z,65.48
2019-04-16T07:18:32.351Z,64.59
2019-04-16T07:21:06.121Z,64.59
2019-04-16T07:23:40.017Z,64.09
2019-04-16T07:26:15.160Z,63.09
2019-04-16T07:28:58.532Z,63.94
2019-04-16T07:31:52.156Z,62.86
2019-04-16T07:34:41.123Z,62.86
2019-04-16T07:37:33.958Z,61.42
2019-04-16T07:40:23.230Z,61.20
2019-04-16T07:43:15.926Z,61.20
2019-04-16T07:45:58.728Z,60.41
2019-04-16T07:48:39.969Z,60.16
2019-04-16T07:51:35.753Z,59.13
2019-04-16T07:54:26.284Z,58.19
2019-04-16T07:57:00.013Z,58.58
2019-04-16T07:59:34.403Z,56.99
2019-04-16T08:02:08.262Z,56.80
2019-04-16T08:04:42.033Z,55.44
2019-04-16T08:07:20.162Z,57.91
2019-04-16T08:09:51.385Z,55.06
2019-04-16T08:12:30.365Z,54.53
2019-04-16T08:15:12.506Z,52.69
2019-04-16T08:17:36.679Z,52.26
2019-04-16T08:20:10.794Z,52.79
2019-04-16T08:22:47.565Z,49.25
2019-04-16T08:25:26.926Z,47.38
2019-04-16T08:28:00.901Z,43.24
2019-04-16T08:30:39.204Z,40.22
2019-04-16T08:33:11.471Z,38.29
2019-04-16T08:35:45.474Z,37.42
2019-04-16T08:38:19.344Z,35.57
2019-04-16T08:40:53.154Z,35.01
2019-04-16T08:43:29.597Z,32.15
2019-04-16T08:46:03.001Z,31.02
2019-04-16T08:48:37.084Z,31.12
2019-04-16T08:51:10.924Z,30.33
2019-04-16T08:53:46.725Z,30.53
2019-04-16T08:56:20.195Z,29.88
2019-04-16T08:58:58.383Z,29.99
2019-04-16T09:01:31.216Z,29.20
2019-04-16T09:04:05.176Z,29.00
2019-04-16T09:06:38.963Z,29.33
2019-04-16T09:09:35.804Z,29.34
2019-04-16T09:12:10.180Z,28.43
2019-04-16T09:14:47.289Z,27.51
2019-04-16T09:17:46.339Z,26.81
2019-04-16T09:20:31.121Z,26.27
2019-04-16T09:23:04.905Z,27.34
2019-04-16T09:26:12.942Z,27.33
2019-04-16T09:28:47.203Z,27.06
2019-04-16T09:31:38.181Z,26.42
2019-04-16T09:34:35.698Z,26.27
2019-04-16T09:37:22.011Z,26.56
2019-04-16T09:40:17.718Z,25.94
2019-04-16T09:42:50.386Z,25.98
2019-04-16T09:45:25.238Z,25.12
2019-04-16T09:48:02.462Z,24.91
2019-04-16T09:50:34.772Z,24.99
2019-04-16T09:53:08.743Z,25.45
2019-04-16T09:55:42.688Z,24.33
2019-04-16T09:58:21.762Z,24.45
2019-04-16T10:01:02.389Z,24.09
2019-04-16T10:03:37.661Z,24.29
2019-04-16T10:06:11.696Z,24.44
2019-04-16T10:08:45.770Z,24.10
2019-04-16T10:11:19.834Z,24.09
2019-04-16T10:13:53.584Z,24.43
2019-04-16T10:16:29.522Z,24.26
2019-04-16T10:19:07.881Z,25.03
2019-04-16T10:21:39.233Z,24.61
2019-04-16T10:24:23.297Z,23.94
2019-04-16T10:26:59.968Z,22.98
2019-04-16T10:29:33.387Z,23.25
2019-04-16T10:32:07.400Z,22.67
2019-04-16T10:34:41.195Z,22.61
2019-04-16T10:37:15.286Z,23.63
2019-04-16T10:39:58.456Z,24.21
2019-04-16T10:43:09.634Z,23.66
2019-04-16T10:45:53.902Z,23.06
2019-04-16T10:48:46.528Z,22.70
2019-04-16T10:51:37.919Z,22.63
2019-04-16T10:54:15.980Z,22.78
2019-04-16T10:57:20.840Z,22.21
2019-04-16T11:00:02.803Z,24.13
2019-04-16T11:02:46.969Z,22.14
2019-04-16T11:05:41.417Z,22.38
2019-04-16T11:08:15.350Z,22.20
2019-04-16T11:10:49.665Z,22.56
2019-04-16T11:13:30.166Z,22.61
2019-04-16T11:16:09.591Z,23.61
2019-04-16T11:18:43.520Z,22.83
2019-04-16T11:21:17.416Z,23.14
2019-04-16T11:23:51.693Z,23.55
2019-04-16T11:26:25.526Z,23.16
2019-04-16T11:28:59.647Z,22.79
2019-04-16T11:31:34.034Z,23.08
2019-04-16T11:34:09.994Z,22.35
2019-04-16T11:36:43.909Z,23.12
2019-04-16T11:39:17.812Z,22.15
2019-04-16T11:41:51.899Z,21.73
2019-04-16T11:44:25.698Z,21.51
2019-04-16T11:46:59.399Z,22.46
2019-04-16T11:49:33.275Z,22.83
2019-04-16T11:52:07.078Z,22.62
2019-04-16T11:54:41.189Z,22.14
2019-04-16T11:57:15.309Z,22.66
2019-04-16T11:59:49.467Z,21.59
2019-04-16T12:02:33.531Z,21.71
2019-04-16T12:05:22.962Z,22.10
2019-04-16T12:08:21.681Z,22.62
2019-04-16T12:11:19.801Z,23.16
2019-04-16T12:14:04.073Z,22.33
2019-04-16T12:16:45.678Z,22.04
2019-04-16T12:19:37.358Z,21.24
2019-04-16T12:22:23.971Z,21.35
2019-04-16T12:25:22.840Z,21.36
2019-04-16T12:28:21.984Z,21.05
2019-04-16T12:31:10.028Z,21.14
2019-04-16T12:34:03.237Z,21.43
2019-04-16T12:36:48.425Z,21.75
2019-04-16T12:39:47.272Z,20.54
2019-04-16T12:42:25.920Z,21.00
2019-04-16T12:45:09.130Z,20.70
2019-04-16T12:48:05.053Z,21.57
2019-04-16T12:51:01.084Z,21.84
2019-04-16T12:53:56.775Z,20.97
2019-04-16T12:56:49.185Z,20.45
2019-04-16T12:59:31.867Z,21.51
2019-04-16T13:02:23.925Z,22.18
2019-04-16T13:05:29.131Z,21.39
2019-04-16T13:08:20.706Z,22.68
2019-04-16T13:11:31.993Z,24.12
2019-04-16T13:14:33.053Z,22.98
2019-04-16T13:17:19.476Z,22.99
2019-04-16T13:20:14.890Z,21.86
2019-04-16T13:22:52.588Z,21.48
2019-04-16T13:25:35.164Z,21.64
2019-04-16T13:28:08.957Z,21.04
2019-04-16T13:30:42.895Z,21.58
2019-04-16T13:33:16.596Z,21.27
2019-04-16T13:35:50.307Z,21.29
2019-04-16T13:38:24.795Z,21.35
2019-04-16T13:41:01.708Z,21.43
2019-04-16T13:43:39.263Z,21.58
2019-04-16T13:46:13.299Z,21.71
2019-04-16T13:49:06.039Z,22.08
2019-04-16T13:51:40.339Z,22.15
2019-04-16T13:54:34.342Z,19.94
2019-04-16T13:57:12.155Z,20.51
2019-04-16T14:00:03.052Z,20.65
2019-04-16T14:02:51.242Z,20.52
2019-04-16T14:05:25.664Z,18.99
2019-04-16T14:07:59.446Z,21.13
2019-04-16T14:10:33.909Z,20.59
2019-04-16T14:13:12.351Z,20.52
2019-04-16T14:15:44.858Z,21.67
2019-04-16T14:18:21.686Z,21.29
2019-04-16T14:20:54.118Z,20.86
2019-04-16T14:23:27.860Z,21.68
2019-04-16T14:26:01.641Z,22.80
2019-04-16T14:28:51.217Z,24.56
2019-04-16T14:31:16.438Z,22.76
2019-04-16T14:33:57.882Z,22.10
2019-04-16T14:36:31.579Z,21.15
2019-04-16T14:39:18.923Z,21.44
2019-04-16T14:41:52.645Z,22.65
2019-04-16T14:44:28.237Z,23.60
2019-04-16T14:47:02.148Z,23.47
2019-04-16T14:49:35.833Z,24.30
2019-04-16T14:52:09.603Z,24.09
2019-04-16T14:55:07.535Z,24.16
2019-04-16T14:57:58.900Z,23.60
2019-04-16T15:00:51.821Z,23.21
2019-04-16T15:03:34.931Z,23.87
2019-04-16T15:06:23.996Z,23.25
2019-04-16T15:09:05.775Z,25.18
2019-04-16T15:11:58.305Z,27.29
2019-04-16T15:14:37.335Z,28.74
2019-04-16T15:17:14.885Z,29.64
2019-04-16T15:19:53.987Z,30.06
2019-04-16T15:22:38.975Z,31.04
2019-04-16T15:25:19.925Z,31.81
2019-04-16T15:28:12.013Z,32.39
2019-04-16T15:31:03.690Z,31.91
2019-04-16T15:33:45.596Z,32.77
2019-04-16T15:36:22.174Z,33.92
2019-04-16T15:39:18.108Z,33.30
2019-04-16T15:42:19.675Z,32.81
2019-04-16T15:45:09.399Z,34.48
2019-04-16T15:47:53.360Z,34.12
2019-04-16T15:50:49.399Z,35.10
2019-04-16T15:53:47.791Z,34.35
2019-04-16T15:56:29.991Z,35.12
2019-04-16T15:59:07.653Z,35.59
2019-04-16T16:01:53.336Z,33.94
2019-04-16T16:04:45.359Z,34.88
2019-04-16T16:07:24.313Z,34.42
2019-04-16T16:10:17.868Z,33.74
2019-04-16T16:12:53.593Z,33.05
2019-04-16T16:15:27.083Z,34.03
2019-04-16T16:18:00.819Z,36.31
2019-04-16T16:20:34.523Z,34.69
2019-04-16T16:23:08.325Z,35.01
2019-04-16T16:25:42.438Z,35.74
2019-04-16T16:28:16.551Z,36.43
2019-04-16T16:30:50.507Z,37.67
2019-04-16T16:33:24.303Z,37.18
2019-04-16T16:35:59.902Z,38.35
2019-04-16T16:38:33.811Z,38.64
2019-04-16T16:41:07.576Z,36.99
2019-04-16T16:43:41.351Z,37.71
2019-04-16T16:46:35.075Z,37.14
2019-04-16T16:49:09.038Z,38.39
2019-04-16T16:51:58.631Z,39.20
2019-04-16T16:54:32.357Z,40.27
2019-04-16T16:57:30.991Z,39.11
2019-04-16T17:00:24.997Z,39.87
2019-04-16T17:03:14.806Z,40.20
2019-04-16T17:05:48.779Z,40.50
2019-04-16T17:08:22.473Z,40.63
2019-04-16T17:10:56.206Z,40.24
2019-04-16T17:13:29.915Z,40.18
2019-04-16T17:16:03.720Z,40.79
2019-04-16T17:18:37.415Z,41.38
2019-04-16T17:21:11.203Z,41.06
2019-04-16T17:23:44.987Z,40.30
2019-04-16T17:26:19.005Z,39.94
2019-04-16T17:28:52.704Z,40.43
2019-04-16T17:31:26.565Z,40.61
2019-04-16T17:34:00.267Z,41.04
2019-04-16T17:36:34.151Z,41.45
2019-04-16T17:39:10.460Z,42.13
2019-04-16T17:41:51.266Z,42.43
2019-04-16T17:44:52.112Z,42.71
2019-04-16T17:47:47.928Z,42.48
2019-04-16T17:50:43.569Z,42.31
2019-04-16T17:53:35.305Z,44.27
2019-04-16T17:56:18.611Z,43.76
2019-04-16T17:58:59.060Z,43.62
2019-04-16T18:01:55.998Z,44.25
2019-04-16T18:04:44.814Z,44.97
2019-04-16T18:07:36.704Z,45.45
2019-04-16T18:10:33.724Z,45.27
2019-04-16T18:13:14.528Z,46.37
2019-04-16T18:15:58.428Z,45.84
2019-04-16T18:18:40.685Z,46.73
2019-04-16T18:21:32.340Z,47.31
2019-04-16T18:24:23.116Z,47.09
2019-04-16T18:27:34.124Z,46.40
2019-04-16T18:30:30.408Z,46.15
2019-04-16T18:33:21.967Z,46.44
2019-04-16T18:36:16.973Z,46.60
2019-04-16T18:39:09.127Z,46.88
2019-04-16T18:42:02.406Z,47.02
2019-04-16T18:45:05.002Z,47.35
2019-04-16T18:48:01.361Z,46.39
2019-04-16T18:50:28.438Z,46.43
2019-04-16T18:53:02.158Z,46.96
2019-04-16T18:55:35.901Z,47.42
2019-04-16T18:58:09.695Z,47.55
2019-04-16T19:00:48.608Z,48.53
2019-04-16T19:03:22.458Z,47.96
2019-04-16T19:05:56.475Z,48.48
2019-04-16T19:08:41.653Z,49.10
2019-04-16T19:11:06.752Z,48.97
2019-04-16T19:13:40.511Z,48.84
2019-04-16T19:16:14.252Z,48.93
2019-04-16T19:18:48.017Z,48.39
2019-04-16T19:21:21.805Z,48.67
2019-04-16T19:23:55.626Z,48.67
2019-04-16T19:26:30.379Z,49.71
2019-04-16T19:29:05.911Z,49.53
2019-04-16T19:31:41.079Z,49.41
2019-04-16T19:34:14.983Z,50.04
2019-04-16T19:36:48.880Z,49.95
2019-04-16T19:39:22.890Z,50.61
2019-04-16T19:41:58.221Z,50.47
2019-04-16T19:44:33.697Z,50.37
2019-04-16T19:47:07.873Z,50.12
2019-04-16T19:49:41.639Z,50.12
2019-04-16T19:52:17.370Z,50.57
2019-04-16T19:54:51.240Z,50.10
2019-04-16T19:57:25.465Z,50.25
2019-04-16T19:59:59.519Z,50.92
2019-04-16T20:02:34.040Z,51.25
2019-04-16T20:05:08.145Z,51.14
2019-04-16T20:07:41.987Z,51.27
2019-04-16T20:10:16.580Z,51.64
2019-04-16T20:12:50.370Z,52.49
2019-04-16T20:15:24.228Z,52.20
2019-04-16T20:17:58.157Z,52.37
2019-04-16T20:20:31.864Z,52.59
2019-04-16T20:23:05.859Z,52.16
2019-04-16T20:25:39.638Z,52.93
2019-04-16T20:28:15.636Z,52.46
2019-04-16T20:30:49.034Z,52.43
2019-04-16T20:33:22.777Z,52.66
2019-04-16T20:35:56.873Z,52.73
2019-04-16T20:38:30.695Z,52.75
2019-04-16T20:41:04.583Z,52.96
2019-04-16T20:43:38.343Z,53.47
2019-04-16T20:46:12.105Z,52.88
2019-04-16T20:48:45.886Z,53.09
2019-04-16T20:51:19.660Z,53.68
2019-04-16T20:53:53.463Z,54.14
2019-04-16T20:56:27.798Z,53.57
2019-04-16T20:59:04.348Z,54.72
2019-04-16T21:01:37.922Z,54.65
2019-04-16T21:04:11.782Z,55.40
2019-04-16T21:06:45.530Z,55.20
2019-04-16T21:09:19.441Z,55.32
2019-04-16T21:11:53.470Z,55.70
2019-04-16T21:14:27.239Z,56.27
2019-04-16T21:17:05.743Z,56.64
2019-04-16T21:19:47.612Z,57.48
2019-04-16T21:22:24.956Z,56.51
2019-04-16T21:24:57.597Z,56.97
2019-04-16T21:27:33.407Z,57.85
2019-04-16T21:30:12.318Z,58.29
2019-04-16T21:32:53.936Z,58.29
2019-04-16T21:35:31.986Z,58.26
2019-04-16T21:38:42.174Z,58.55
2019-04-16T21:41:16.123Z,59.01
2019-04-16T21:43:49.943Z,59.12
2019-04-16T21:46:23.708Z,59.30
2019-04-16T21:48:59.815Z,59.62
2019-04-16T21:51:33.444Z,59.55
2019-04-16T21:54:07.294Z,59.58
2019-04-16T21:56:41.090Z,60.39
2019-04-16T21:59:15.529Z,60.88
2019-04-16T22:01:49.383Z,61.53
2019-04-16T22:04:23.902Z,60.35
2019-04-16T22:06:57.770Z,60.46
2019-04-16T22:09:31.617Z,59.96
2019-04-16T22:12:05.830Z,60.51
2019-04-16T22:14:40.062Z,61.41
2019-04-16T22:17:14.174Z,60.38
2019-04-16T22:19:54.262Z,61.02
2019-04-16T22:22:27.400Z,60.68
2019-04-16T22:25:00.444Z,61.11
2019-04-16T22:27:36.841Z,60.50
2019-04-16T22:30:10.014Z,61.27
2019-04-16T22:32:43.804Z,61.19
2019-04-16T22:35:17.679Z,61.54
2019-04-16T22:37:51.540Z,62.14
2019-04-16T22:40:36.536Z,61.46
2019-04-16T22:43:23.760Z,62.71
2019-04-16T22:46:03.254Z,62.30
2019-04-16T22:48:37.145Z,62.96
2019-04-16T22:51:11.691Z,62.89
2019-04-16T22:53:46.483Z,63.64
2019-04-16T22:56:22.343Z,63.58
2019-04-16T22:58:56.248Z,63.05
2019-04-16T23:01:32.396Z,63.65
2019-04-16T23:04:06.260Z,63.28
2019-04-16T23:06:40.026Z,63.82
2019-04-16T23:09:17.187Z,63.90
2019-04-16T23:11:49.463Z,63.87
2019-04-16T23:14:23.224Z,63.87
2019-04-16T23:16:57.074Z,63.45
2019-04-16T23:19:31.076Z,63.45
2019-04-16T23:22:04.982Z,62.75
2019-04-16T23:24:38.782Z,62.78
2019-04-16T23:27:12.989Z,63.45
2019-04-16T23:29:48.192Z,64.04
2019-04-16T23:32:27.627Z,64.47
2019-04-16T23:35:17.258Z,65.44
2019-04-16T23:37:51.257Z,65.06
2019-04-16T23:40:25.234Z,65.22
2019-04-16T23:43:25.080Z,65.22
2019-04-16T23:46:11.522Z,64.24
2019-04-16T23:48:51.958Z,63.83
2019-04-16T23:51:30.829Z,64.54
2019-04-16T23:54:17.753Z,63.67
2019-04-16T23:57:05.041Z,64.43
2019-04-16T23:59:56.818Z,64.43
